createdAt,value
2018-03-19T19:31:03.459Z,21.31
2018-03-19T19:33:30.375Z,20.76
2018-03-19T19:35:57.319Z,20.60
2018-03-19T19:38:25.558Z,20.54
2018-03-19T19:40:52.485Z,20.55
2018-03-19T19:43:19.403Z,20.55
2018-03-19T19:45:46.318Z,20.56
2018-03-19T19:48:13.261Z,20.57
2018-03-19T19:50:40.177Z,20.56
2018-03-19T19:53:07.095Z,20.54
2018-03-19T19:55:34.016Z,20.55
2018-03-19T19:58:00.938Z,20.54
2018-03-19T20:00:27.877Z,20.53
2018-03-19T20:02:54.800Z,20.52
2018-03-19T20:05:21.722Z,20.52
2018-03-19T20:07:48.644Z,20.51
2018-03-19T20:10:15.569Z,20.49
2018-03-19T20:12:42.488Z,20.50
2018-03-19T20:15:09.425Z,20.49
2018-03-19T20:17:36.383Z,20.49
2018-03-19T20:20:03.306Z,20.50
2018-03-19T20:22:30.357Z,20.50
2018-03-19T20:24:57.281Z,20.51
2018-03-19T20:27:24.206Z,20.51
2018-03-19T20:29:51.131Z,20.50
2018-03-19T20:32:18.059Z,20.51
2018-03-19T20:34:45.015Z,20.52
2018-03-19T20:37:11.933Z,20.54
2018-03-19T20:39:38.850Z,20.54
2018-03-19T20:42:05.811Z,20.53
2018-03-19T20:44:32.691Z,20.52
2018-03-19T20:46:59.651Z,20.52
2018-03-19T20:49:26.569Z,20.51
2018-03-19T20:51:53.483Z,20.51
2018-03-19T20:54:20.410Z,20.51
2018-03-19T20:56:47.335Z,20.50
2018-03-19T20:59:14.284Z,20.49
2018-03-19T21:01:41.206Z,20.48
2018-03-19T21:04:08.132Z,20.47
2018-03-19T21:06:35.089Z,20.46
2018-03-19T21:09:02.004Z,20.46
2018-03-19T21:11:28.941Z,20.46
2018-03-19T21:13:55.859Z,20.46
2018-03-19T21:16:22.778Z,20.46
2018-03-19T21:18:49.723Z,20.47
2018-03-19T21:21:16.647Z,20.46
2018-03-19T21:23:43.562Z,20.47
2018-03-19T21:26:10.498Z,20.47
2018-03-19T21:28:37.423Z,20.49
2018-03-19T21:31:04.377Z,20.50
2018-03-19T21:33:31.300Z,20.50
2018-03-19T21:35:58.364Z,20.51
2018-03-19T21:38:25.286Z,20.52
2018-03-19T21:40:52.206Z,20.51
2018-03-19T21:43:19.160Z,20.52
2018-03-19T21:45:46.082Z,20.51
2018-03-19T21:48:13.006Z,20.51
2018-03-19T21:50:39.929Z,20.50
2018-03-19T21:53:06.852Z,20.49
2018-03-19T21:55:33.800Z,20.48
2018-03-19T21:58:00.724Z,20.48
2018-03-19T22:00:27.645Z,20.48
2018-03-19T22:02:54.564Z,20.48
2018-03-19T22:05:21.479Z,20.48
2018-03-19T22:07:48.422Z,20.47
2018-03-19T22:10:15.346Z,20.47
2018-03-19T22:12:42.276Z,20.46
2018-03-19T22:15:09.199Z,20.44
2018-03-19T22:17:36.115Z,20.45
2018-03-19T22:20:03.060Z,20.44
2018-03-19T22:22:29.985Z,20.44
2018-03-19T22:24:56.896Z,20.44
2018-03-19T22:27:23.823Z,20.43
2018-03-19T22:29:50.740Z,20.42
2018-03-19T22:32:17.683Z,20.41
2018-03-19T22:34:44.622Z,20.41
2018-03-19T22:37:11.545Z,20.41
2018-03-19T22:39:38.472Z,20.39
2018-03-19T22:42:05.395Z,20.39
2018-03-19T22:44:32.360Z,20.40
2018-03-19T22:46:59.255Z,20.41
2018-03-19T22:49:26.176Z,20.39
2018-03-19T22:51:53.095Z,20.39
2018-03-19T22:54:20.017Z,20.39
2018-03-19T22:56:46.968Z,20.38
2018-03-19T22:59:13.882Z,20.38
2018-03-19T23:01:40.805Z,20.37
2018-03-19T23:04:07.731Z,20.36
2018-03-19T23:06:34.646Z,20.36
2018-03-19T23:09:01.601Z,20.36
2018-03-19T23:11:28.525Z,20.36
2018-03-19T23:13:55.439Z,20.34
2018-03-19T23:16:22.359Z,20.35
2018-03-19T23:18:49.286Z,20.33
2018-03-19T23:21:16.224Z,20.33
2018-03-19T23:23:43.143Z,20.32
2018-03-19T23:26:10.091Z,20.32
2018-03-19T23:28:37.017Z,20.32
2018-03-19T23:31:03.945Z,20.31
2018-03-19T23:33:30.866Z,20.31
2018-03-19T23:35:57.810Z,20.31
2018-03-19T23:38:24.734Z,20.31
2018-03-19T23:40:51.661Z,20.30
2018-03-19T23:43:18.644Z,20.30
2018-03-19T23:45:45.523Z,20.30
2018-03-19T23:48:12.440Z,20.30
2018-03-19T23:50:39.364Z,20.30
2018-03-19T23:53:06.287Z,20.30
2018-03-19T23:55:33.208Z,20.29
2018-03-19T23:58:00.131Z,20.29
